Time;durP1;ratioP1;P1;durP2;ratioP2;P2;SDS_P1;SDS_P2;PMS_P1;PMS_P2;Temp;Humidity;BMP_temperature;BMP_pressure;BME280_temperature;BME280_humidity;BME280_pressure;Samples;Min_cycle;Max_cycle;Signal;HPM_P1;HPM_P2
2023/08/12 00:00:21;;;;;;;6.30;4.32;;;20.90;99.90;;;;;;4845347;29;20227;-52
2023/08/12 00:02:47;;;;;;;6.72;4.10;;;21.00;99.90;;;;;;4844969;29;20210;-51
2023/08/12 00:05:13;;;;;;;7.30;4.30;;;21.00;99.90;;;;;;4845339;29;20205;-50
2023/08/12 00:07:42;;;;;;;7.68;4.15;;;21.10;99.90;;;;;;4845078;29;20171;-53
2023/08/12 00:10:09;;;;;;;5.30;3.78;;;21.10;99.90;;;;;;4844968;29;20181;-48
2023/08/12 00:12:36;;;;;;;7.05;4.93;;;21.10;99.90;;;;;;4845137;29;20296;-50
2023/08/12 00:15:04;;;;;;;6.80;4.60;;;21.10;99.90;;;;;;4845106;29;20206;-49
2023/08/12 00:17:30;;;;;;;5.63;3.85;;;21.10;99.90;;;;;;4844939;29;20221;-50
2023/08/12 00:19:55;;;;;;;6.75;4.20;;;21.10;99.90;;;;;;4844900;29;20214;-47
2023/08/12 00:22:22;;;;;;;9.45;5.13;;;21.10;99.90;;;;;;4844751;29;20232;-48
2023/08/12 00:24:47;;;;;;;7.57;4.43;;;21.10;99.90;;;;;;4828092;29;20591;-51
2023/08/12 00:27:13;;;;;;;5.93;4.85;;;21.10;99.90;;;;;;4844684;29;20195;-51
2023/08/12 00:29:39;;;;;;;9.02;4.47;;;21.10;99.90;;;;;;4844783;29;20190;-52
2023/08/12 00:32:05;;;;;;;5.97;4.53;;;21.00;99.90;;;;;;4844731;29;20653;-51
2023/08/12 00:34:30;;;;;;;8.90;4.63;;;21.10;99.90;;;;;;4844639;29;20190;-52
2023/08/12 00:36:56;;;;;;;7.50;4.70;;;21.10;99.90;;;;;;4844752;29;20239;-51
2023/08/12 00:39:22;;;;;;;5.60;4.50;;;21.10;99.90;;;;;;4844433;29;20518;-50
2023/08/12 00:41:48;;;;;;;5.93;4.82;;;21.10;99.90;;;;;;4844355;29;20763;-49
2023/08/12 00:44:14;;;;;;;5.25;4.25;;;21.10;99.90;;;;;;4844507;29;20277;-50
2023/08/12 00:46:41;;;;;;;6.05;4.47;;;21.10;99.90;;;;;;4844465;29;20265;-52
2023/08/12 00:49:07;;;;;;;7.45;5.00;;;21.00;99.90;;;;;;4843575;29;20186;-48
2023/08/12 00:51:35;;;;;;;7.38;5.00;;;21.00;99.90;;;;;;4844075;29;20637;-51
2023/08/12 00:54:04;;;;;;;7.72;4.65;;;21.10;99.90;;;;;;4844139;29;20187;-51
2023/08/12 00:56:31;;;;;;;9.20;5.50;;;21.10;99.90;;;;;;4844405;29;20182;-50
2023/08/12 00:58:59;;;;;;;9.25;4.78;;;21.10;99.90;;;;;;4844242;29;20179;-48
2023/08/12 01:01:25;;;;;;;8.15;4.50;;;21.10;99.90;;;;;;4844167;29;20210;-49
2023/08/12 01:03:51;;;;;;;7.95;5.32;;;21.10;99.90;;;;;;4843929;29;20257;-51
2023/08/12 01:06:17;;;;;;;8.50;4.75;;;21.10;99.90;;;;;;4844235;29;20193;-46
2023/08/12 01:08:44;;;;;;;7.05;4.38;;;21.00;99.90;;;;;;4843895;29;20187;-50
2023/08/12 01:11:16;;;;;;;8.40;5.53;;;21.10;99.90;;;;;;4844009;29;20189;-51
2023/08/12 01:14:06;;;;;;;7.32;5.05;;;21.10;99.90;;;;;;4844089;29;20182;-51
2023/08/12 01:16:36;;;;;;;9.25;5.30;;;20.90;99.90;;;;;;4843866;29;20175;-49
2023/08/12 01:19:06;;;;;;;9.73;5.25;;;21.00;99.90;;;;;;4843779;29;20211;-51
2023/08/12 01:21:36;;;;;;;7.85;4.80;;;21.00;99.90;;;;;;4843919;29;20198;-51
2023/08/12 01:24:02;;;;;;;7.80;5.13;;;21.00;99.90;;;;;;4843912;29;20221;-49
2023/08/12 01:26:28;;;;;;;6.55;4.78;;;20.90;99.90;;;;;;4843760;29;20190;-48
2023/08/12 01:28:53;;;;;;;6.78;4.60;;;20.90;99.90;;;;;;4843663;29;20329;-51
2023/08/12 01:31:26;;;;;;;8.80;4.97;;;20.90;99.90;;;;;;4843734;29;20257;-49
2023/08/12 01:33:58;;;;;;;8.90;5.20;;;20.80;99.90;;;;;;4843462;29;20198;-52
2023/08/12 01:36:26;;;;;;;9.45;4.80;;;20.80;99.90;;;;;;4843303;29;20288;-48
2023/08/12 01:38:54;;;;;;;10.35;4.70;;;20.80;99.90;;;;;;4843636;29;20175;-47
2023/08/12 01:41:22;;;;;;;7.65;4.70;;;20.70;99.90;;;;;;4843544;29;20190;-49
2023/08/12 01:43:48;;;;;;;7.18;4.70;;;20.60;99.90;;;;;;4843387;29;20340;-51
2023/08/12 01:46:14;;;;;;;7.22;4.72;;;20.60;99.90;;;;;;4843582;29;20653;-49
2023/08/12 01:48:39;;;;;;;7.47;4.70;;;20.60;99.90;;;;;;4843435;29;20190;-51
2023/08/12 01:51:05;;;;;;;7.00;4.43;;;20.60;99.90;;;;;;4843425;29;20189;-49
2023/08/12 01:53:31;;;;;;;7.80;4.95;;;20.50;99.90;;;;;;4843301;29;20186;-47
2023/08/12 01:55:57;;;;;;;7.30;4.35;;;20.50;99.90;;;;;;4843315;29;20178;-49
2023/08/12 01:58:22;;;;;;;8.23;4.55;;;20.60;99.90;;;;;;4843090;29;20217;-50
2023/08/12 02:00:48;;;;;;;8.52;5.18;;;20.50;99.90;;;;;;4842966;29;20183;-51
2023/08/12 02:03:13;;;;;;;6.68;4.78;;;20.40;99.90;;;;;;4843165;29;20221;-49
2023/08/12 02:05:40;;;;;;;8.30;4.88;;;20.50;99.90;;;;;;4843212;29;20183;-51
2023/08/12 02:08:06;;;;;;;7.85;4.20;;;20.50;99.90;;;;;;4843033;29;20653;-50
2023/08/12 02:10:32;;;;;;;5.80;4.40;;;20.60;99.90;;;;;;4843038;29;20189;-49
2023/08/12 02:12:58;;;;;;;8.55;5.13;;;20.60;99.90;;;;;;4842979;29;20191;-51
2023/08/12 02:15:24;;;;;;;7.97;4.38;;;20.50;99.90;;;;;;4842874;29;20570;-52
2023/08/12 02:17:49;;;;;;;7.15;4.50;;;20.50;99.90;;;;;;4843051;29;20185;-50
2023/08/12 02:20:15;;;;;;;7.38;4.95;;;20.50;99.90;;;;;;4826653;29;20197;-50
2023/08/12 02:22:40;;;;;;;8.93;4.85;;;20.50;99.90;;;;;;4842738;29;20313;-49
2023/08/12 02:25:06;;;;;;;6.13;4.50;;;20.50;99.90;;;;;;4842955;29;20544;-52
2023/08/12 02:27:32;;;;;;;8.80;4.97;;;20.60;99.90;;;;;;4842812;29;20179;-51
2023/08/12 02:29:58;;;;;;;7.47;4.50;;;20.50;99.90;;;;;;4842685;29;20179;-48
2023/08/12 02:32:23;;;;;;;6.40;4.60;;;20.60;99.90;;;;;;4842732;29;20182;-48
2023/08/12 02:34:49;;;;;;;10.07;5.32;;;20.50;99.90;;;;;;4842629;29;20190;-50
2023/08/12 02:37:15;;;;;;;8.10;4.85;;;20.40;99.90;;;;;;4842488;29;20238;-50
2023/08/12 02:39:40;;;;;;;7.18;4.88;;;20.50;99.90;;;;;;4842618;29;20179;-53
2023/08/12 02:42:06;;;;;;;7.38;4.63;;;20.60;99.90;;;;;;4842470;29;20217;-50
2023/08/12 02:44:31;;;;;;;7.75;5.05;;;20.60;99.90;;;;;;4842498;29;20174;-50
2023/08/12 02:46:57;;;;;;;6.50;4.93;;;20.50;99.90;;;;;;4842477;29;20195;-51
2023/08/12 02:49:23;;;;;;;8.02;5.05;;;20.50;99.90;;;;;;4842684;29;20262;-51
2023/08/12 02:51:48;;;;;;;6.18;4.70;;;20.50;99.90;;;;;;4842539;29;20327;-52
2023/08/12 02:54:14;;;;;;;6.35;5.10;;;20.50;99.90;;;;;;4842629;29;20183;-49
2023/08/12 02:56:40;;;;;;;9.05;5.20;;;20.50;99.90;;;;;;4842423;29;20193;-52
2023/08/12 02:59:05;;;;;;;8.45;4.93;;;20.50;99.90;;;;;;4842392;29;20255;-51
2023/08/12 03:01:31;;;;;;;7.72;5.65;;;20.50;99.90;;;;;;4842414;29;20587;-49
2023/08/12 03:03:56;;;;;;;8.63;5.28;;;20.40;99.90;;;;;;4842538;29;20223;-49
2023/08/12 03:06:22;;;;;;;7.88;5.45;;;20.40;99.90;;;;;;4842579;29;20187;-48
2023/08/12 03:08:48;;;;;;;10.27;5.90;;;20.50;99.90;;;;;;4842590;29;20208;-52
2023/08/12 03:11:13;;;;;;;12.65;6.22;;;20.50;99.90;;;;;;4843143;29;20653;-48
2023/08/12 03:13:39;;;;;;;7.25;5.55;;;20.50;99.90;;;;;;4846046;29;20269;-49
2023/08/12 03:16:10;;;;;;;8.88;6.30;;;20.50;99.90;;;;;;4846013;29;20597;-51
2023/08/12 03:18:36;;;;;;;6.43;5.65;;;20.40;99.90;;;;;;4846124;29;20270;-48
2023/08/12 03:21:06;;;;;;;9.65;6.10;;;20.50;99.90;;;;;;4846025;29;20622;-50
2023/08/12 03:23:32;;;;;;;6.78;5.28;;;20.50;99.90;;;;;;4845896;29;20206;-51
2023/08/12 03:25:57;;;;;;;9.00;5.82;;;20.40;99.90;;;;;;4845940;29;20191;-49
2023/08/12 03:28:23;;;;;;;7.55;5.57;;;20.30;99.90;;;;;;4829226;29;20540;-51
2023/08/12 03:30:52;;;;;;;15.77;6.00;;;20.30;99.90;;;;;;4845778;29;20191;-50
2023/08/12 03:33:18;;;;;;;6.25;5.38;;;20.30;99.90;;;;;;4845654;29;20701;-51
2023/08/12 03:35:48;;;;;;;6.88;5.22;;;20.30;99.90;;;;;;4845682;29;20261;-51
2023/08/12 03:38:14;;;;;;;7.68;6.13;;;20.40;99.90;;;;;;4845545;29;20213;-48
2023/08/12 03:40:41;;;;;;;8.63;5.93;;;20.30;99.90;;;;;;4845654;29;20189;-51
2023/08/12 03:43:06;;;;;;;7.00;5.53;;;20.30;99.90;;;;;;4845407;29;20213;-51
2023/08/12 03:45:32;;;;;;;7.70;6.00;;;20.30;99.90;;;;;;4845780;29;20183;-48
2023/08/12 03:47:58;;;;;;;9.38;6.00;;;20.30;99.90;;;;;;4845523;29;20281;-54
2023/08/12 03:50:24;;;;;;;8.63;5.78;;;20.20;99.90;;;;;;4845845;29;20194;-51
2023/08/12 03:52:49;;;;;;;9.40;5.85;;;20.30;99.90;;;;;;4845469;29;20185;-49
2023/08/12 03:55:15;;;;;;;8.57;6.35;;;20.30;99.90;;;;;;4845553;29;20194;-50
2023/08/12 03:57:40;;;;;;;12.45;6.00;;;20.20;99.90;;;;;;4845276;29;20182;-51
2023/08/12 04:00:08;;;;;;;7.65;5.90;;;20.20;99.90;;;;;;4845663;29;20189;-52
2023/08/12 04:02:34;;;;;;;8.40;5.85;;;20.10;99.90;;;;;;4845241;29;20215;-52
2023/08/12 04:05:00;;;;;;;6.38;5.13;;;20.20;99.90;;;;;;4845322;29;20189;-52
2023/08/12 04:07:26;;;;;;;5.85;4.60;;;20.20;99.90;;;;;;4845283;29;20546;-50
2023/08/12 04:09:52;;;;;;;8.85;5.22;;;20.20;99.90;;;;;;4845063;29;20205;-50
2023/08/12 04:12:18;;;;;;;6.70;4.75;;;20.20;99.90;;;;;;4844996;29;20700;-52
2023/08/12 04:14:43;;;;;;;5.97;4.30;;;20.20;99.90;;;;;;4845070;29;20221;-49
2023/08/12 04:17:09;;;;;;;8.38;4.55;;;20.30;99.90;;;;;;4845199;29;20202;-51
2023/08/12 04:19:35;;;;;;;8.05;4.97;;;20.30;99.90;;;;;;4845053;29;20183;-53
2023/08/12 04:22:00;;;;;;;6.57;4.85;;;20.20;99.90;;;;;;4844810;29;20563;-52
2023/08/12 04:24:26;;;;;;;6.60;4.85;;;20.20;99.90;;;;;;4843850;29;20193;-51
2023/08/12 04:26:51;;;;;;;5.53;4.50;;;20.10;99.90;;;;;;4844826;29;20195;-51
2023/08/12 04:29:17;;;;;;;6.72;4.55;;;20.20;99.90;;;;;;4844953;29;20238;-51
2023/08/12 04:31:43;;;;;;;6.25;4.82;;;20.30;99.90;;;;;;4845079;29;20526;-50
2023/08/12 04:34:08;;;;;;;5.65;4.68;;;20.30;99.90;;;;;;4844809;29;20250;-49
2023/08/12 04:36:34;;;;;;;8.55;5.07;;;20.20;99.90;;;;;;4844923;29;20371;-51
2023/08/12 04:38:59;;;;;;;8.18;4.90;;;20.10;99.90;;;;;;4844881;29;20585;-49
2023/08/12 04:41:25;;;;;;;6.35;4.55;;;20.10;99.90;;;;;;4844676;29;20187;-51
2023/08/12 04:43:51;;;;;;;5.53;4.80;;;20.10;99.90;;;;;;4844691;29;20214;-48
2023/08/12 04:46:17;;;;;;;5.70;4.45;;;20.10;99.90;;;;;;4844584;29;20183;-52
2023/08/12 04:48:43;;;;;;;5.40;4.22;;;20.10;99.90;;;;;;4844550;29;20183;-50
2023/08/12 04:51:09;;;;;;;5.47;4.50;;;20.10;99.90;;;;;;4844595;29;20645;-52
2023/08/12 04:53:34;;;;;;;5.43;4.40;;;20.10;99.90;;;;;;4844445;29;20649;-52
2023/08/12 04:56:00;;;;;;;5.18;4.00;;;20.10;99.90;;;;;;4844551;29;20594;-51
2023/08/12 04:58:25;;;;;;;4.88;3.80;;;20.20;99.90;;;;;;4844503;29;20541;-51
2023/08/12 05:00:54;;;;;;;6.35;4.07;;;20.20;99.90;;;;;;4844451;29;20586;-51
2023/08/12 05:03:20;;;;;;;5.82;4.13;;;20.10;99.90;;;;;;4844090;29;20275;-51
2023/08/12 05:05:52;;;;;;;4.40;3.88;;;20.00;99.90;;;;;;4828022;29;20194;-52
2023/08/12 05:08:18;;;;;;;5.32;3.80;;;20.10;99.90;;;;;;4844167;29;20258;-53
2023/08/12 05:10:44;;;;;;;4.22;3.67;;;20.00;99.90;;;;;;4844129;29;20265;-53
2023/08/12 05:13:09;;;;;;;5.55;3.35;;;20.10;99.90;;;;;;4844261;29;20194;-52
2023/08/12 05:15:36;;;;;;;3.22;2.90;;;20.00;99.90;;;;;;4844264;29;20638;-52
2023/08/12 05:18:02;;;;;;;3.65;2.63;;;20.00;99.90;;;;;;4843968;29;20649;-50
2023/08/12 05:20:28;;;;;;;2.67;2.38;;;19.90;99.90;;;;;;4844196;29;20300;-52
2023/08/12 05:22:54;;;;;;;2.63;2.20;;;19.90;99.90;;;;;;4861982;29;20285;-53
2023/08/12 05:25:19;;;;;;;2.25;1.90;;;19.90;99.90;;;;;;4862033;29;20209;-52
2023/08/12 05:27:45;;;;;;;2.20;2.00;;;20.00;99.90;;;;;;4862464;29;20269;-52
2023/08/12 05:30:11;;;;;;;4.53;1.90;;;19.90;99.90;;;;;;4862120;29;20189;-51
2023/08/12 05:32:37;;;;;;;2.03;1.83;;;19.90;99.90;;;;;;4855576;29;20242;-51
2023/08/12 05:35:02;;;;;;;2.10;1.60;;;19.80;99.90;;;;;;4851831;29;20186;-49
2023/08/12 05:37:28;;;;;;;1.88;1.77;;;19.90;99.90;;;;;;4851776;29;20317;-50
2023/08/12 05:39:54;;;;;;;2.35;1.70;;;20.00;99.90;;;;;;4853132;29;20199;-53
2023/08/12 05:42:19;;;;;;;4.25;2.10;;;20.00;99.90;;;;;;4851805;29;20686;-52
2023/08/12 05:44:45;;;;;;;2.13;1.90;;;19.90;99.90;;;;;;4852349;29;20241;-53
2023/08/12 05:47:11;;;;;;;2.47;1.90;;;19.90;99.90;;;;;;4859586;29;20517;-52
2023/08/12 05:49:36;;;;;;;3.40;1.80;;;20.00;99.90;;;;;;4861815;29;20644;-51
2023/08/12 05:52:02;;;;;;;1.98;1.77;;;20.00;99.90;;;;;;4861829;29;20186;-51
2023/08/12 05:54:27;;;;;;;3.40;2.17;;;20.00;99.90;;;;;;4861747;29;20187;-52
2023/08/12 05:56:53;;;;;;;2.45;2.05;;;20.00;99.90;;;;;;4861898;29;20569;-51
2023/08/12 05:59:19;;;;;;;3.03;1.88;;;20.10;99.90;;;;;;4861830;29;20660;-50
2023/08/12 06:01:44;;;;;;;2.17;1.85;;;20.10;99.90;;;;;;4861640;29;20235;-52
2023/08/12 06:04:10;;;;;;;2.60;1.90;;;20.10;99.90;;;;;;4861880;29;20186;-53
2023/08/12 06:06:35;;;;;;;2.53;1.52;;;20.20;99.90;;;;;;4861636;29;20186;-53
2023/08/12 06:09:01;;;;;;;2.00;1.00;;;20.20;99.90;;;;;;4861507;29;20231;-51
2023/08/12 06:11:27;;;;;;;1.20;0.82;;;20.20;99.90;;;;;;4860266;29;20960;-51
2023/08/12 06:13:52;;;;;;;1.10;0.80;;;20.20;99.90;;;;;;4860096;29;20182;-51
2023/08/12 06:16:18;;;;;;;2.50;0.80;;;20.30;99.90;;;;;;4861372;29;20221;-52
2023/08/12 06:18:44;;;;;;;0.80;0.70;;;20.20;99.90;;;;;;4861373;29;20600;-52
2023/08/12 06:21:09;;;;;;;1.67;0.90;;;20.30;99.90;;;;;;4860999;29;20174;-53
2023/08/12 06:23:36;;;;;;;0.88;0.85;;;20.30;99.90;;;;;;4860973;29;20238;-53
2023/08/12 06:26:02;;;;;;;1.08;0.80;;;20.40;99.90;;;;;;4861136;29;20636;-52
2023/08/12 06:28:27;;;;;;;1.10;0.80;;;20.40;99.90;;;;;;4861269;29;20190;-52
2023/08/12 06:30:53;;;;;;;1.27;1.17;;;20.50;99.90;;;;;;4860656;29;20216;-53
2023/08/12 06:33:19;;;;;;;1.23;0.80;;;20.50;99.90;;;;;;4860489;29;20619;-52
2023/08/12 06:35:44;;;;;;;3.17;1.05;;;20.60;99.90;;;;;;4860080;29;20221;-49
2023/08/12 06:38:10;;;;;;;1.75;1.20;;;20.60;99.90;;;;;;4860778;29;20190;-53
2023/08/12 06:40:37;;;;;;;1.33;1.20;;;20.60;99.90;;;;;;4860983;29;20194;-52
2023/08/12 06:43:03;;;;;;;1.30;1.20;;;20.70;99.90;;;;;;4861162;29;20768;-50
2023/08/12 06:45:29;;;;;;;2.95;1.70;;;20.60;99.90;;;;;;4860899;29;20265;-49
2023/08/12 06:47:54;;;;;;;2.53;2.33;;;20.50;99.90;;;;;;4860743;29;20182;-52
2023/08/12 06:50:20;;;;;;;4.05;3.40;;;20.40;99.90;;;;;;4861117;29;20178;-49
2023/08/12 06:52:46;;;;;;;8.13;4.35;;;20.40;99.90;;;;;;4860970;29;20243;-52
2023/08/12 06:55:11;;;;;;;7.65;4.60;;;20.10;99.90;;;;;;4860908;29;20178;-52
2023/08/12 06:57:37;;;;;;;6.32;4.00;;;19.90;99.90;;;;;;4861113;29;20532;-52
2023/08/12 07:00:05;;;;;;;5.47;2.20;;;19.80;99.90;;;;;;4860873;29;20649;-48
2023/08/12 07:02:30;;;;;;;4.47;1.60;;;19.60;99.90;;;;;;4860839;29;20241;-52
2023/08/12 07:04:56;;;;;;;6.15;1.67;;;19.50;99.90;;;;;;4860872;29;20656;-53
2023/08/12 07:07:22;;;;;;;5.13;1.50;;;19.40;99.90;;;;;;4860848;29;20193;-52
2023/08/12 07:09:48;;;;;;;9.63;1.80;;;19.30;99.90;;;;;;4860794;29;20537;-53
2023/08/12 07:12:13;;;;;;;3.17;1.48;;;19.30;99.90;;;;;;4860916;29;20193;-52
2023/08/12 07:14:39;;;;;;;6.40;1.77;;;19.20;99.90;;;;;;4860914;29;20181;-51
2023/08/12 07:17:05;;;;;;;4.97;1.70;;;19.10;99.90;;;;;;4860909;29;20190;-52
2023/08/12 07:19:30;;;;;;;3.63;1.50;;;19.10;99.90;;;;;;4860715;29;20269;-53
2023/08/12 07:21:56;;;;;;;4.60;1.60;;;19.10;99.90;;;;;;4859938;29;20205;-53
2023/08/12 07:24:22;;;;;;;4.75;1.60;;;19.10;99.90;;;;;;4860664;29;20244;-52
2023/08/12 07:26:47;;;;;;;3.58;1.60;;;19.10;99.90;;;;;;4860891;29;20210;-53
2023/08/12 07:29:13;;;;;;;5.50;2.05;;;19.10;99.90;;;;;;4860737;29;20242;-52
2023/08/12 07:31:39;;;;;;;4.80;1.90;;;19.10;99.90;;;;;;4860867;29;20187;-52
2023/08/12 07:34:05;;;;;;;4.05;2.08;;;19.10;99.90;;;;;;4860584;29;20182;-53
2023/08/12 07:36:31;;;;;;;3.38;2.30;;;19.10;99.90;;;;;;4860653;29;20276;-48
2023/08/12 07:38:56;;;;;;;4.22;2.60;;;19.30;99.90;;;;;;4860717;29;20178;-52
2023/08/12 07:41:22;;;;;;;5.65;2.90;;;19.30;99.90;;;;;;4860765;29;20282;-50
2023/08/12 07:43:48;;;;;;;5.10;2.80;;;19.30;99.90;;;;;;4860541;29;20703;-52
2023/08/12 07:46:13;;;;;;;4.78;2.78;;;19.30;99.90;;;;;;4860677;29;20182;-51
2023/08/12 07:48:39;;;;;;;7.28;2.90;;;19.30;99.90;;;;;;4860615;29;20213;-54
2023/08/12 07:51:05;;;;;;;4.90;3.08;;;19.30;99.90;;;;;;4860486;29;20188;-53
2023/08/12 07:53:31;;;;;;;6.30;3.75;;;19.30;99.90;;;;;;4860475;29;20189;-50
2023/08/12 07:55:57;;;;;;;6.45;3.35;;;19.20;99.90;;;;;;4860599;29;20183;-51
2023/08/12 07:58:23;;;;;;;4.65;3.22;;;19.20;99.90;;;;;;4862760;29;20178;-52
2023/08/12 08:00:48;;;;;;;6.20;4.20;;;19.10;99.90;;;;;;4863913;29;20517;-51
2023/08/12 08:03:14;;;;;;;8.00;6.13;;;19.10;99.90;;;;;;4863690;29;20225;-52
2023/08/12 08:05:45;;;;;;;11.13;9.23;;;19.10;99.90;;;;;;4863650;29;20565;-53
2023/08/12 08:08:10;;;;;;;14.55;11.48;;;19.20;99.90;;;;;;4863523;29;20190;-52
2023/08/12 08:10:36;;;;;;;15.40;12.85;;;19.30;99.90;;;;;;4863775;29;20531;-49
2023/08/12 08:13:02;;;;;;;16.52;13.68;;;19.30;99.90;;;;;;4863928;29;20188;-52
2023/08/12 08:15:28;;;;;;;16.38;14.65;;;19.30;99.90;;;;;;4863542;29;20218;-48
2023/08/12 08:17:53;;;;;;;17.60;13.80;;;19.30;99.90;;;;;;4863547;29;20186;-51
2023/08/12 08:20:19;;;;;;;15.77;11.52;;;19.40;99.90;;;;;;4863464;29;20186;-51
2023/08/12 08:22:44;;;;;;;11.93;10.60;;;19.40;99.90;;;;;;4863203;29;20300;-49
2023/08/12 08:25:10;;;;;;;12.82;10.45;;;19.60;99.90;;;;;;4863331;29;20189;-49
2023/08/12 08:27:36;;;;;;;14.55;8.70;;;19.70;99.90;;;;;;4863468;29;20186;-52
2023/08/12 08:30:01;;;;;;;13.00;8.85;;;19.70;99.90;;;;;;4863354;29;20185;-49
2023/08/12 08:32:27;;;;;;;7.60;6.47;;;19.80;99.90;;;;;;4863370;29;20190;-52
2023/08/12 08:34:53;;;;;;;8.90;5.18;;;20.10;99.90;;;;;;4863184;29;20178;-51
2023/08/12 08:37:18;;;;;;;6.88;3.30;;;20.30;99.90;;;;;;4863395;29;20306;-53
2023/08/12 08:39:44;;;;;;;7.80;3.00;;;20.40;99.90;;;;;;4863498;29;20193;-51
2023/08/12 08:42:11;;;;;;;5.70;2.33;;;20.30;99.90;;;;;;4863190;29;20250;-50
2023/08/12 08:44:42;;;;;;;5.63;2.53;;;20.10;99.90;;;;;;4863187;29;20599;-50
2023/08/12 08:47:08;;;;;;;7.75;2.72;;;20.00;99.90;;;;;;4863062;29;20178;-49
2023/08/12 08:49:35;;;;;;;6.70;2.40;;;19.90;99.90;;;;;;4862984;29;20257;-50
2023/08/12 08:52:01;;;;;;;5.88;2.40;;;20.10;99.90;;;;;;4862839;29;20178;-52
2023/08/12 08:54:28;;;;;;;5.68;2.50;;;20.30;99.90;;;;;;4863066;29;20275;-49
2023/08/12 08:56:54;;;;;;;4.68;2.25;;;20.50;99.90;;;;;;4863028;29;20175;-52
2023/08/12 08:59:21;;;;;;;5.57;2.42;;;20.50;99.90;;;;;;4862887;29;20518;-51
2023/08/12 09:01:48;;;;;;;6.30;2.38;;;20.50;99.90;;;;;;4862785;29;20179;-50
2023/08/12 09:04:16;;;;;;;3.63;2.42;;;20.60;99.90;;;;;;4862660;29;20218;-52
2023/08/12 09:06:43;;;;;;;6.22;2.40;;;20.50;99.90;;;;;;4862876;29;20178;-51
2023/08/12 09:09:12;;;;;;;5.35;2.35;;;20.60;99.90;;;;;;4862084;29;20221;-49
2023/08/12 09:11:41;;;;;;;7.70;2.40;;;20.50;99.90;;;;;;4862759;29;20643;-53
2023/08/12 09:14:08;;;;;;;9.05;2.50;;;20.30;99.90;;;;;;4862579;29;20234;-49
2023/08/12 09:16:34;;;;;;;7.05;2.38;;;20.30;99.90;;;;;;4862426;29;20178;-51
2023/08/12 09:19:00;;;;;;;4.53;2.40;;;20.40;99.90;;;;;;4862392;29;20209;-51
2023/08/12 09:21:25;;;;;;;5.00;2.35;;;20.50;99.90;;;;;;4862369;29;20648;-51
2023/08/12 09:23:51;;;;;;;4.03;2.05;;;20.30;99.90;;;;;;4862429;29;20213;-51
2023/08/12 09:26:19;;;;;;;6.35;2.17;;;20.30;99.90;;;;;;4862539;29;20178;-50
2023/08/12 09:28:46;;;;;;;4.85;2.30;;;20.20;99.90;;;;;;4862385;29;20189;-52
2023/08/12 09:31:27;;;;;;;6.95;2.72;;;20.20;99.90;;;;;;4862520;29;20235;-52
2023/08/12 09:33:57;;;;;;;4.68;2.08;;;20.40;99.90;;;;;;4862444;29;20665;-48
2023/08/12 09:36:23;;;;;;;7.13;2.17;;;20.40;99.90;;;;;;4861988;29;20229;-51
2023/08/12 09:38:48;;;;;;;6.40;2.25;;;20.50;99.90;;;;;;4861948;29;20189;-49
2023/08/12 09:41:15;;;;;;;5.60;2.25;;;20.60;99.90;;;;;;4862143;29;20206;-51
2023/08/12 09:43:42;;;;;;;6.18;2.40;;;20.50;99.90;;;;;;4861952;29;20213;-51
2023/08/12 09:46:12;;;;;;;6.30;2.65;;;20.70;99.90;;;;;;4861874;29;20640;-52
2023/08/12 09:48:38;;;;;;;5.32;2.58;;;21.00;99.90;;;;;;4862217;29;20260;-51
2023/08/12 09:51:04;;;;;;;5.47;2.47;;;21.20;99.90;;;;;;4861751;29;20261;-49
2023/08/12 09:53:30;;;;;;;5.32;2.40;;;21.00;99.90;;;;;;4861825;29;20677;-47
2023/08/12 09:55:59;;;;;;;6.10;2.47;;;21.00;99.90;;;;;;4861826;29;20268;-52
2023/08/12 09:58:25;;;;;;;5.47;2.53;;;21.10;99.90;;;;;;4861968;29;20174;-50
2023/08/12 10:00:52;;;;;;;5.47;2.80;;;21.40;99.90;;;;;;4861537;29;20193;-50
2023/08/12 10:03:19;;;;;;;4.22;2.47;;;21.70;99.90;;;;;;4861714;29;20217;-50
2023/08/12 10:05:45;;;;;;;5.90;2.00;;;21.70;99.90;;;;;;4861744;29;20236;-51
2023/08/12 10:08:13;;;;;;;9.82;2.22;;;21.80;99.90;;;;;;4861697;29;20182;-48
2023/08/12 10:10:39;;;;;;;6.13;2.40;;;21.60;99.90;;;;;;4861520;29;20182;-50
2023/08/12 10:13:07;;;;;;;5.28;2.10;;;21.80;99.90;;;;;;4861513;29;20306;-49
2023/08/12 10:15:34;;;;;;;5.55;2.05;;;22.00;99.90;;;;;;4861448;29;20686;-50
2023/08/12 10:17:59;;;;;;;5.88;2.00;;;21.90;99.90;;;;;;4861713;29;20182;-49
2023/08/12 10:20:27;;;;;;;5.72;1.88;;;22.10;99.90;;;;;;4861468;29;20178;-51
2023/08/12 10:22:54;;;;;;;4.65;2.00;;;22.20;99.90;;;;;;4861232;29;20225;-51
2023/08/12 10:25:23;;;;;;;5.82;2.20;;;22.10;99.90;;;;;;4861323;29;20667;-48
2023/08/12 10:27:50;;;;;;;4.10;2.05;;;22.00;99.90;;;;;;4861150;29;20178;-52
2023/08/12 10:30:15;;;;;;;4.95;2.28;;;22.00;99.90;;;;;;4861336;29;20193;-52
2023/08/12 10:32:42;;;;;;;4.65;2.22;;;22.40;99.90;;;;;;4861294;29;20186;-50
2023/08/12 10:35:08;;;;;;;4.32;2.13;;;22.60;99.90;;;;;;4861177;29;20223;-50
2023/08/12 10:37:34;;;;;;;6.10;2.30;;;22.80;99.90;;;;;;4861133;29;20285;-50
2023/08/12 10:40:07;;;;;;;6.22;2.65;;;22.90;99.90;;;;;;4861160;29;20178;-52
2023/08/12 10:42:46;;;;;;;6.57;2.33;;;23.20;99.90;;;;;;4860901;29;20271;-52
2023/08/12 10:45:14;;;;;;;4.35;2.00;;;23.40;99.90;;;;;;4861273;29;20214;-52
2023/08/12 10:48:00;;;;;;;8.88;1.92;;;23.30;99.90;;;;;;4861082;29;20269;-49
2023/08/12 10:50:26;;;;;;;3.28;1.70;;;23.20;99.90;;;;;;4861068;29;20205;-47
2023/08/12 10:52:53;;;;;;;7.00;2.03;;;23.40;99.90;;;;;;4860870;29;20648;-53
2023/08/12 10:55:23;;;;;;;6.13;1.90;;;23.40;99.90;;;;;;4861154;29;20269;-51
2023/08/12 10:57:50;;;;;;;4.90;1.83;;;23.50;99.90;;;;;;4861003;29;20174;-52
2023/08/12 11:00:17;;;;;;;5.63;1.90;;;23.30;99.90;;;;;;4860941;29;20194;-51
2023/08/12 11:02:48;;;;;;;3.80;1.70;;;23.30;99.90;;;;;;4860821;29;20217;-49
2023/08/12 11:05:14;;;;;;;5.80;1.90;;;23.20;99.90;;;;;;4861145;29;20185;-48
2023/08/12 11:08:05;;;;;;;5.07;1.95;;;23.20;99.90;;;;;;4860658;29;20213;-52
2023/08/12 11:10:33;;;;;;;6.40;2.15;;;23.30;99.90;;;;;;4861051;29;20193;-46
2023/08/12 11:12:59;;;;;;;3.70;1.60;;;23.50;99.90;;;;;;4860862;29;20185;-49
2023/08/12 11:15:33;;;;;;;3.90;1.67;;;23.60;99.90;;;;;;4860862;29;20185;-48
2023/08/12 11:17:58;;;;;;;4.53;1.80;;;23.80;99.90;;;;;;4860732;29;20185;-50
2023/08/12 11:20:27;;;;;;;2.97;1.63;;;23.50;99.90;;;;;;4860920;29;20532;-50
2023/08/12 11:22:53;;;;;;;4.22;1.50;;;23.60;99.90;;;;;;4860820;29;20213;-52
2023/08/12 11:25:19;;;;;;;6.15;1.83;;;23.90;99.90;;;;;;4860892;29;20238;-52
2023/08/12 11:27:47;;;;;;;3.13;1.75;;;24.20;99.90;;;;;;4860640;29;20182;-51
2023/08/12 11:30:18;;;;;;;4.35;1.95;;;24.10;99.90;;;;;;4860989;29;20175;-50
2023/08/12 11:32:49;;;;;;;5.05;1.60;;;24.30;99.90;;;;;;4862008;29;20186;-51
2023/08/12 11:35:16;;;;;;;7.10;1.77;;;24.20;99.90;;;;;;4864523;29;20182;-51
2023/08/12 11:37:44;;;;;;;4.75;1.70;;;24.20;99.90;;;;;;4864252;29;20290;-49
2023/08/12 11:40:14;;;;;;;5.47;1.98;;;24.20;99.90;;;;;;4864185;29;20226;-50
2023/08/12 11:42:41;;;;;;;5.90;1.85;;;24.30;99.90;;;;;;4863991;29;20301;-50
2023/08/12 11:45:07;;;;;;;7.82;1.85;;;24.20;99.90;;;;;;4863949;29;20259;-50
2023/08/12 11:47:34;;;;;;;5.18;1.80;;;24.30;99.90;;;;;;4864184;29;20648;-52
2023/08/12 11:50:10;;;;;;;3.63;2.10;;;24.40;99.90;;;;;;4864058;29;20262;-52
2023/08/12 11:52:36;;;;;;;5.20;1.70;;;24.30;99.90;;;;;;4863944;29;20780;-50
2023/08/12 11:55:03;;;;;;;4.68;1.88;;;24.20;99.90;;;;;;4863890;29;20198;-49
2023/08/12 11:57:28;;;;;;;8.65;1.90;;;24.20;99.90;;;;;;4863648;29;20669;-49
2023/08/12 12:00:05;;;;;;;4.13;1.60;;;24.10;99.90;;;;;;4863972;29;20205;-50
2023/08/12 12:02:30;;;;;;;5.57;2.03;;;24.20;99.90;;;;;;4863776;29;20216;-51
2023/08/12 12:04:56;;;;;;;2.70;1.42;;;24.30;99.90;;;;;;4863788;29;20182;-51
2023/08/12 12:07:27;;;;;;;3.67;1.67;;;24.40;99.90;;;;;;4863685;29;20189;-50
2023/08/12 12:09:54;;;;;;;4.55;1.80;;;24.30;99.90;;;;;;4863674;29;20170;-52
2023/08/12 12:12:26;;;;;;;4.55;1.73;;;24.10;99.90;;;;;;4863475;29;20178;-50
2023/08/12 12:14:54;;;;;;;5.28;1.90;;;23.90;99.90;;;;;;4863623;29;20182;-52
2023/08/12 12:17:23;;;;;;;6.95;1.77;;;23.90;99.90;;;;;;4863580;29;20182;-48
2023/08/12 12:19:56;;;;;;;4.82;1.73;;;23.90;99.90;;;;;;4863506;29;20177;-49
2023/08/12 12:22:33;;;;;;;3.75;1.50;;;24.00;99.90;;;;;;4863215;29;20736;-52
2023/08/12 12:25:11;;;;;;;4.93;1.92;;;24.10;99.90;;;;;;4863196;29;20190;-51
2023/08/12 12:27:41;;;;;;;2.65;1.33;;;24.20;99.90;;;;;;4863297;29;20635;-51
2023/08/12 12:30:12;;;;;;;4.68;1.42;;;24.10;99.90;;;;;;4863279;29;20177;-52
2023/08/12 12:32:38;;;;;;;5.00;1.60;;;23.80;99.90;;;;;;4863137;29;20637;-50
2023/08/12 12:35:07;;;;;;;6.45;1.50;;;23.90;99.90;;;;;;4863021;29;20521;-52
2023/08/12 12:37:33;;;;;;;5.30;1.70;;;23.90;99.90;;;;;;4862959;29;20293;-51
2023/08/12 12:39:58;;;;;;;5.68;1.77;;;23.60;99.90;;;;;;4863201;29;20170;-51
2023/08/12 12:42:24;;;;;;;3.85;1.58;;;23.60;99.90;;;;;;4863089;29;20743;-49